Pagrindinis puslapis
METAR-TAF:

METAR-TAF

Oro uostai :

Siris, Iranas

platuma: 25-54-34N, ilguma: 054-32-22E, Aukštis: 13 m

Dabartinis oras

Ataskaita buvo paskelbta 30 minutes, ne 02:00 UTC
Vėjas 6 kt iš Rytų
Temperatūra 25°C
Drėgmė 89%
Slėgis 1008 hPa
Matomumas: 2800 m
rūkana,

METAR: OIBS 220200Z 09006KT 2800 BR NSC 25/23 Q1008

Laikas: 07:00 (02:30 UTC)


TAF: trūkstamas

Orai ataskaitas ir orų prognozės (METAR, TAF).

turimą stotys yra geltonos ir raudonos taškus žemėlapyje.

Perkelti pele per norėdami pamatyti stoties vardą.

Tada spustelėkite, norėdami matyti oro stebėjimo ir prognozės.

Norėdami pakeisti žemėlapį: spustelėkite ant žalios mygtukų su juodo kryžiaus žemyn,; žalią mygtuką su brūkšneliu, jei norite nutolinti; arba žalių rodyklių gretimoms žemėlapius.


METAR-TAF: